Terminal Aerodrome Forecast
Issued by NWS

Home | Current Version | Previous Version | Text Only | Print | Product List | Glossary Off
Versions: 1 2 3 4 5 6 7 8 9 10 11 12 13 14 15 16

000
FTUS43 KICT 200423 AAA
TAFCNU
TAF AMD
KCNU 200423Z 2004/2024 16017G22KT P6SM -SHRA VCTS SCT050CB OVC100
      TEMPO 2004/2006 3SM TSRA BKN035CB OVC100
     FM200600 14017KT 5SM -TSRA SCT015 OVC035CB
      TEMPO 2006/2009 2SM +TSRA OVC008CB
     FM200900 16013KT P6SM VCSH BKN025 OVC100
     FM201200 26013KT P6SM OVC015
     FM201700 29017KT P6SM BKN018
     FM202000 29017KT P6SM BKN035=

USA.gov is the U.S. government's official web portal to all federal, state and local government web resources and services.